Greater Sudbury Airport

Airport
ICAO code: 
CYSB
IATA Code: 
YSB
Summary
ICAO Region: 
NAM
Territory: 
Location: 
Sudbury, Ontario,
Serving: 
Sudbury
Elevation: 
1141 ft
Coordinates: 
Aerial View: 
46° 37' 30" N, 80° 47' 56" W
Airport BS: 
Bird Strike
Airport CFIT: 
Altimeter Temperature Error Correction
Airport GND: 
Aircraft Ground De/Anti Icing
Airport RE: 
Landing on Contaminated Runways
Metar
Observation
CYSB 041700Z 27010KT 20SM BKN021 BKN065 M03/M06 A2984 RMK SC5SC2 SLP127
Station
Sudbury, Ont.
Date/Time
2021-12-04 17:00:00
Wind direction
270°
Wind speed
10 kts
Lowest cloud amount
broken clouds
Temperature
-3°C
Dew point
-6°C
Humidity
79%
Weather condition
n/a

Description

Regional airport located 11 miles northeast of Sudbury, Ontario, Canada.

Climatology

Humid Continental climate (Köppen climate classification Dfb) - Variable weather patterns and a large seasonal temperature variance. Summers are often warm and humid with frequent thunderstorms and winters can be very cold with frequent snowfall and persistent snow cover.

Runways

Designator Length Width Surface Rops
12/30 1524 46 ASP Yes/Yes
4/22 2012 61 ASP Yes/Yes
Airport map: 
Aerial View: 

Accidents and Serious Incidents at or in the vicinity of CYSB

SKYbrary Partners:

Safety knowledge contributed by: